Time;durP1;ratioP1;P1;durP2;ratioP2;P2;SDS_P1;SDS_P2;PMS_P1;PMS_P2;Temp;Humidity;BMP_temperature;BMP_pressure;BME280_temperature;BME280_humidity;BME280_pressure;Samples;Min_cycle;Max_cycle;Signal;HPM_P1;HPM_P2
2022/08/22 00:00:26;;;;;;;25.20;15.90;;;;;;;19.83;57.82;98353.30;106195;1276;112080;-69
2022/08/22 00:03:22;;;;;;;24.40;15.70;;;;;;;19.85;57.84;98356.31;106010;1276;97886;-69
2022/08/22 00:06:07;;;;;;;29.10;17.90;;;;;;;19.85;57.61;98358.44;106109;1276;107766;-67
2022/08/22 00:08:42;;;;;;;30.80;19.00;;;;;;;19.78;57.58;98360.14;106053;1276;97908;-68
2022/08/22 00:11:38;;;;;;;25.70;17.20;;;;;;;19.70;57.74;98357.98;105923;1276;97838;-69
2022/08/22 00:14:21;;;;;;;28.70;18.70;;;;;;;19.62;58.23;98355.06;105934;1276;112216;-70
2022/08/22 00:17:19;;;;;;;28.00;18.20;;;;;;;19.61;58.27;98353.83;106052;1276;97904;-70
2022/08/22 00:20:06;;;;;;;29.50;18.10;;;;;;;19.58;58.44;98358.14;105929;1276;108387;-70
2022/08/22 00:22:46;;;;;;;28.40;18.30;;;;;;;19.56;58.37;98360.19;106051;1276;97883;-68
2022/08/22 00:25:26;;;;;;;28.20;18.30;;;;;;;19.53;58.76;98358.92;105970;1277;97961;-69
2022/08/22 00:28:12;;;;;;;26.30;16.60;;;;;;;19.52;58.63;98357.11;105984;1276;111910;-70
2022/08/22 00:31:06;;;;;;;27.40;18.30;;;;;;;19.49;58.72;98358.36;105948;1276;96209;-70
2022/08/22 00:33:59;;;;;;;26.20;17.60;;;;;;;19.45;58.91;98358.27;105810;1276;108319;-69
2022/08/22 00:36:42;;;;;;;;;;;;;;;19.42;58.87;98353.35;105796;1276;97963;-70
2022/08/22 00:39:23;;;;;;;26.50;16.00;;;;;;;19.38;59.26;98356.41;105887;1276;97958;-69
2022/08/22 00:42:06;;;;;;;26.10;16.30;;;;;;;19.38;59.48;98356.38;105900;1276;111457;-69
2022/08/22 00:44:41;;;;;;;;;;;;;;;19.38;59.68;98361.81;105981;1276;97895;-70
2022/08/22 00:47:35;;;;;;;25.80;15.40;;;;;;;19.36;59.76;98368.14;106009;1276;107906;-70
2022/08/22 00:50:23;;;;;;;24.50;15.10;;;;;;;19.37;59.87;98368.87;105933;1276;97854;-69
2022/08/22 00:53:14;;;;;;;25.50;16.90;;;;;;;19.39;59.59;98368.10;105993;1276;95282;-70
2022/08/22 00:56:20;;;;;;;27.00;17.20;;;;;;;19.39;60.09;98368.88;106089;1276;111198;-68
2022/08/22 00:59:09;;;;;;;29.00;18.20;;;;;;;19.42;60.31;98369.76;105990;1276;96662;-70
2022/08/22 01:02:26;;;;;;;27.60;17.80;;;;;;;19.45;60.16;98371.17;106040;1275;108481;-70
2022/08/22 01:05:35;;;;;;;27.80;18.70;;;;;;;19.44;60.39;98367.38;106165;1276;97979;-69
2022/08/22 01:08:21;;;;;;;25.20;15.70;;;;;;;19.44;60.46;98362.33;106095;1276;98438;-70
2022/08/22 01:11:07;;;;;;;29.20;18.40;;;;;;;19.47;60.64;98365.86;105953;1276;111549;-69
2022/08/22 01:14:03;;;;;;;29.00;17.90;;;;;;;19.49;60.64;98362.77;105908;1278;97614;-71
2022/08/22 01:17:05;;;;;;;26.00;17.10;;;;;;;19.49;60.89;98362.02;105956;1276;107912;-69
2022/08/22 01:19:45;;;;;;;28.70;16.90;;;;;;;19.53;61.01;98358.29;105932;1276;98570;-70
2022/08/22 01:22:51;;;;;;;26.50;17.40;;;;;;;19.55;61.07;98359.57;106018;1276;97939;-70
2022/08/22 01:25:46;;;;;;;26.90;17.70;;;;;;;19.57;61.24;98360.20;105923;1276;110970;-71
2022/08/22 01:28:45;;;;;;;25.80;16.50;;;;;;;19.59;61.24;98363.35;105957;1276;97880;-70
2022/08/22 01:31:48;;;;;;;25.30;16.00;;;;;;;19.62;61.46;98361.16;106025;1276;107816;-69
2022/08/22 01:34:56;;;;;;;25.00;16.30;;;;;;;19.66;61.44;98361.15;105866;1276;97954;-70
2022/08/22 01:37:46;;;;;;;24.80;15.50;;;;;;;19.66;61.56;98361.86;105943;1276;97996;-69
2022/08/22 01:40:14;;;;;;;25.50;15.80;;;;;;;19.68;61.56;98365.41;105914;1276;112147;-70
2022/08/22 01:42:58;;;;;;;26.70;16.00;;;;;;;19.69;61.59;98362.36;105880;1276;97973;-70
2022/08/22 01:45:31;;;;;;;26.10;15.20;;;;;;;19.72;61.74;98359.33;105944;1276;107749;-70
2022/08/22 01:48:12;;;;;;;24.30;15.50;;;;;;;19.74;61.78;98354.24;105981;1276;97878;-68
2022/08/22 01:50:53;;;;;;;27.40;16.10;;;;;;;19.76;61.97;98350.87;106029;1276;97880;-69
2022/08/22 01:53:45;;;;;;;25.30;15.50;;;;;;;19.78;62.05;98347.93;105870;1276;111584;-70
2022/08/22 01:56:20;;;;;;;27.10;16.00;;;;;;;19.81;62.06;98348.71;105878;1276;97692;-69
2022/08/22 01:58:58;;;;;;;26.70;16.00;;;;;;;19.83;62.13;98349.03;105949;1276;109463;-70
2022/08/22 02:01:54;;;;;;;26.00;15.90;;;;;;;19.85;62.24;98348.44;106084;1277;98038;-71
2022/08/22 02:04:34;;;;;;;26.90;17.10;;;;;;;19.87;62.24;98346.76;105991;1276;98084;-69
2022/08/22 02:07:06;;;;;;;27.00;16.90;;;;;;;19.88;62.30;98350.77;105853;1276;111469;-68
2022/08/22 02:09:37;;;;;;;24.90;15.80;;;;;;;19.89;62.42;98349.76;106005;1276;97956;-71
2022/08/22 02:12:42;;;;;;;29.00;17.30;;;;;;;19.90;62.48;98347.08;106078;1276;107749;-71
2022/08/22 02:15:13;;;;;;;24.50;15.90;;;;;;;19.92;62.66;98349.59;105967;1276;97892;-70
2022/08/22 02:17:51;;;;;;;26.90;16.90;;;;;;;19.93;62.56;98354.13;105952;1276;97955;-69
2022/08/22 02:20:35;;;;;;;27.30;16.80;;;;;;;19.94;62.69;98352.39;105928;1276;111462;-71
2022/08/22 02:23:26;;;;;;;26.50;15.80;;;;;;;19.92;62.70;98350.93;105967;1276;96266;-69
2022/08/22 02:26:00;;;;;;;25.70;15.60;;;;;;;19.91;62.84;98353.41;105926;1276;107825;-70
2022/08/22 02:28:52;;;;;;;24.80;15.40;;;;;;;19.90;62.94;98353.39;105908;1276;98605;-70
2022/08/22 02:31:39;;;;;;;23.90;15.10;;;;;;;19.89;63.00;98359.36;106096;1276;97887;-70
2022/08/22 02:34:17;;;;;;;27.00;16.60;;;;;;;19.89;63.02;98359.39;106033;1276;111327;-70
2022/08/22 02:36:52;;;;;;;25.10;16.30;;;;;;;19.87;63.05;98368.69;105857;1276;97982;-69
2022/08/22 02:40:04;;;;;;;26.50;16.30;;;;;;;19.84;63.05;98371.30;105868;1276;108492;-69
2022/08/22 02:42:50;;;;;;;26.10;16.50;;;;;;;19.84;63.24;98373.08;105671;1276;97971;-69
2022/08/22 02:45:22;;;;;;;26.20;17.40;;;;;;;19.85;63.33;98374.80;105958;1276;97856;-68
2022/08/22 02:48:16;;;;;;;27.40;17.50;;;;;;;19.86;63.35;98377.77;106058;1276;112106;-70
2022/08/22 02:51:00;;;;;;;26.60;15.90;;;;;;;19.85;63.48;98377.34;106087;1276;97902;-70
2022/08/22 02:53:34;;;;;;;25.90;16.10;;;;;;;19.85;63.54;98376.79;106004;1276;107752;-69
2022/08/22 02:56:17;;;;;;;26.70;16.90;;;;;;;19.85;63.66;98376.54;105914;1276;97923;-69
2022/08/22 02:58:58;;;;;;;28.00;17.00;;;;;;;19.87;63.70;98379.48;105958;1276;97949;-69
2022/08/22 03:01:26;;;;;;;25.90;15.10;;;;;;;19.88;63.75;98382.70;105911;1276;111421;-69
2022/08/22 03:04:20;;;;;;;26.20;16.00;;;;;;;19.89;63.70;98386.22;106051;1276;98071;-69
2022/08/22 03:06:57;;;;;;;26.80;16.70;;;;;;;19.89;63.85;98382.27;106101;1277;107656;-70
2022/08/22 03:09:30;;;;;;;27.00;15.50;;;;;;;19.88;63.91;98384.12;105961;1276;97763;-69
2022/08/22 03:12:11;;;;;;;26.70;16.30;;;;;;;19.90;63.96;98381.33;106014;1275;95378;-68
2022/08/22 03:15:08;;;;;;;25.00;16.00;;;;;;;19.91;64.07;98385.95;105992;1276;111366;-69
2022/08/22 03:18:05;;;;;;;26.00;16.40;;;;;;;19.92;64.17;98382.57;106051;1276;97794;-68
2022/08/22 03:20:58;;;;;;;27.10;16.70;;;;;;;19.93;64.22;98381.79;105959;1276;108551;-69
2022/08/22 03:23:45;;;;;;;25.00;15.40;;;;;;;19.93;64.38;98378.17;105851;1276;98034;-69
2022/08/22 03:26:26;;;;;;;27.50;15.60;;;;;;;19.93;64.37;98376.92;105922;1276;95475;-68
2022/08/22 03:29:07;;;;;;;25.40;15.30;;;;;;;19.93;64.49;98378.63;105989;1276;111231;-69
2022/08/22 03:31:57;;;;;;;28.20;16.90;;;;;;;19.93;64.52;98380.70;105940;1276;95195;-68
2022/08/22 03:34:25;;;;;;;26.30;16.10;;;;;;;19.93;64.40;98382.90;105886;1276;108358;-68
2022/08/22 03:37:10;;;;;;;28.60;15.80;;;;;;;19.91;64.43;98385.04;105971;1276;97854;-69
2022/08/22 03:40:18;;;;;;;25.60;16.70;;;;;;;19.92;64.62;98386.38;106000;1276;96330;-70
2022/08/22 03:43:02;;;;;;;25.50;16.70;;;;;;;19.92;64.69;98387.42;105895;1276;111386;-70
2022/08/22 03:46:01;;;;;;;27.60;16.60;;;;;;;19.94;64.78;98383.50;105883;1276;97965;-75
2022/08/22 03:48:44;;;;;;;27.90;17.40;;;;;;;19.95;64.81;98385.01;105900;1276;107668;-70
2022/08/22 03:51:27;;;;;;;27.80;16.70;;;;;;;19.95;64.93;98387.51;105003;1276;1314777;-69
2022/08/22 03:54:07;;;;;;;;;;;;;;;19.96;64.94;98387.59;106039;1276;97991;-70
2022/08/22 03:57:06;;;;;;;26.60;15.60;;;;;;;19.94;65.08;98388.33;105979;1276;111501;-70
2022/08/22 04:00:05;;;;;;;27.70;16.40;;;;;;;19.94;64.98;98392.46;105864;1276;97785;-71
2022/08/22 04:03:11;;;;;;;27.30;16.80;;;;;;;19.96;65.12;98389.79;105819;1276;108986;-70
2022/08/22 04:06:01;;;;;;;28.60;17.00;;;;;;;19.97;65.27;98394.15;105953;1276;95389;-71
2022/08/22 04:08:56;;;;;;;29.00;17.40;;;;;;;19.98;65.27;98391.27;105961;1276;95299;-69
2022/08/22 04:11:45;;;;;;;28.30;17.30;;;;;;;19.99;65.30;98389.39;105918;1276;111376;-69
2022/08/22 04:14:51;;;;;;;27.70;17.20;;;;;;;19.99;65.28;98387.77;105933;1275;97968;-70
2022/08/22 04:17:39;;;;;;;27.20;16.30;;;;;;;19.96;65.41;98386.80;105912;1278;108387;-68
2022/08/22 04:20:45;;;;;;;26.90;17.10;;;;;;;19.97;65.45;98379.26;105947;1276;97988;-67
2022/08/22 04:23:26;;;;;;;28.20;16.40;;;;;;;19.96;65.65;98374.42;105917;1278;96996;-69
2022/08/22 04:26:02;;;;;;;28.20;16.40;;;;;;;19.96;65.52;98378.38;105906;1275;111755;-68
2022/08/22 04:28:57;;;;;;;29.70;16.10;;;;;;;19.96;65.60;98377.83;105872;1276;95784;-69
2022/08/22 04:31:31;;;;;;;24.30;14.90;;;;;;;19.97;65.72;98386.19;105915;1276;107525;-68
2022/08/22 04:34:15;;;;;;;23.20;13.90;;;;;;;19.98;65.67;98396.52;105952;1276;97899;-70
2022/08/22 04:36:53;;;;;;;24.50;14.30;;;;;;;20.00;65.70;98403.65;106008;1276;97990;-69
2022/08/22 04:39:33;;;;;;;23.50;14.60;;;;;;;20.01;65.59;98400.97;105932;1276;111416;-70
2022/08/22 04:42:09;;;;;;;24.70;15.10;;;;;;;19.99;65.70;98395.17;105918;1278;96368;-68
2022/08/22 04:45:14;;;;;;;24.40;14.70;;;;;;;19.95;65.76;98401.52;105928;1276;109803;-69
2022/08/22 04:47:49;;;;;;;24.80;14.70;;;;;;;19.94;65.84;98402.02;106000;1275;97887;-69
2022/08/22 04:50:34;;;;;;;24.80;14.50;;;;;;;19.95;65.96;98403.69;105679;1276;97906;-76
2022/08/22 04:53:34;;;;;;;25.40;14.70;;;;;;;19.97;65.89;98407.82;105865;1275;111434;-79
2022/08/22 04:56:21;;;;;;;26.10;15.30;;;;;;;19.98;66.15;98408.70;105805;1276;97856;-76
2022/08/22 04:58:57;;;;;;;26.60;14.90;;;;;;;19.99;66.17;98406.22;105811;1276;107808;-77
2022/08/22 05:01:37;;;;;;;27.40;15.80;;;;;;;20.00;66.17;98412.66;105840;1276;97883;-80
2022/08/22 05:04:11;;;;;;;26.90;16.70;;;;;;;20.01;66.18;98416.59;105876;1277;97953;-79
2022/08/22 05:06:45;;;;;;;24.80;15.40;;;;;;;20.02;66.14;98419.08;105889;1275;111426;-78
2022/08/22 05:09:21;;;;;;;28.00;17.30;;;;;;;20.04;66.27;98415.50;105956;1276;97740;-80
2022/08/22 05:11:56;;;;;;;27.60;16.10;;;;;;;20.06;66.20;98416.77;105956;1276;107775;-77
2022/08/22 05:14:32;;;;;;;27.70;16.40;;;;;;;20.08;66.42;98413.57;105890;1276;98088;-76
2022/08/22 05:17:03;;;;;;;28.10;16.20;;;;;;;20.11;66.38;98416.46;105835;1276;97856;-81
2022/08/22 05:19:34;;;;;;;25.00;15.60;;;;;;;20.14;66.42;98413.83;105950;1276;111240;-81
2022/08/22 05:22:11;;;;;;;25.90;16.20;;;;;;;20.17;66.45;98417.77;105987;1276;97985;-80
2022/08/22 05:24:45;;;;;;;28.20;17.60;;;;;;;20.17;66.39;98421.70;106042;1276;108862;-80
2022/08/22 05:27:24;;;;;;;25.90;16.30;;;;;;;20.18;66.48;98426.05;105947;1276;98468;-82
2022/08/22 05:30:08;;;;;;;27.30;17.30;;;;;;;20.20;66.45;98423.70;105873;1276;97868;-79
2022/08/22 05:32:40;;;;;;;26.60;16.50;;;;;;;20.21;66.61;98423.92;105818;1276;111389;-79
2022/08/22 05:35:08;;;;;;;28.80;16.60;;;;;;;20.25;66.37;98427.76;105786;1276;97854;-80
2022/08/22 05:37:47;;;;;;;28.10;16.90;;;;;;;20.28;66.54;98427.20;105792;1276;107732;-78
2022/08/22 05:40:24;;;;;;;27.20;16.20;;;;;;;20.33;66.67;98432.21;105797;1276;97913;-79
2022/08/22 05:42:55;;;;;;;26.50;16.20;;;;;;;20.37;66.62;98433.04;105812;1276;96847;-79
2022/08/22 05:45:27;;;;;;;27.70;16.60;;;;;;;20.43;66.75;98433.17;105883;1276;111427;-80
2022/08/22 05:48:06;;;;;;;25.90;16.80;;;;;;;20.47;66.69;98434.44;105892;1276;97991;-78
2022/08/22 05:50:43;;;;;;;25.70;15.40;;;;;;;20.51;66.72;98439.30;105825;1276;106824;-78
2022/08/22 05:53:28;;;;;;;27.90;17.20;;;;;;;20.56;66.78;98442.35;105757;1277;95321;-79
2022/08/22 05:56:12;;;;;;;23.80;15.50;;;;;;;20.60;66.86;98447.90;105839;1276;95266;-79
2022/08/22 05:58:48;;;;;;;24.90;15.90;;;;;;;20.64;66.65;98453.85;105773;1276;111477;-79
2022/08/22 06:01:22;;;;;;;30.80;20.50;;;;;;;20.67;66.94;98454.05;105956;1276;97911;-78
2022/08/22 06:04:05;;;;;;;26.40;18.30;;;;;;;20.71;66.70;98458.12;105761;1276;107554;-79
2022/08/22 06:06:48;;;;;;;26.40;16.20;;;;;;;20.73;66.85;98462.52;105794;1276;95939;-78
2022/08/22 06:09:31;;;;;;;25.80;16.40;;;;;;;20.75;66.80;98455.39;105824;1276;97996;-80
2022/08/22 06:12:10;;;;;;;27.20;16.70;;;;;;;20.79;66.93;98460.89;105854;1276;111889;-79
2022/08/22 06:15:05;;;;;;;26.70;16.20;;;;;;;20.84;67.01;98454.78;105903;1275;96135;-78
2022/08/22 06:17:49;;;;;;;27.00;16.40;;;;;;;20.90;67.01;98455.64;105962;1276;107788;-78
2022/08/22 06:20:35;;;;;;;27.50;16.10;;;;;;;20.95;67.07;98449.33;105957;1274;97863;-80
2022/08/22 06:23:06;;;;;;;23.90;15.20;;;;;;;21.02;67.05;98449.39;105970;1275;95888;-79
2022/08/22 06:25:38;;;;;;;23.20;14.80;;;;;;;21.07;66.97;98447.64;105979;1276;110540;-78
2022/08/22 06:28:10;;;;;;;23.70;14.90;;;;;;;21.12;67.13;98446.85;105993;1276;98601;-78
2022/08/22 06:30:39;;;;;;;25.10;15.10;;;;;;;21.17;66.99;98448.47;105959;1275;107745;-78
2022/08/22 06:33:11;;;;;;;23.60;14.50;;;;;;;21.20;67.01;98449.36;105927;1277;98629;-79
2022/08/22 06:38:53;;;;;;;23.30;14.00;;;;;;;21.25;67.02;98457.60;106010;1276;112665;-78
2022/08/22 06:41:26;;;;;;;24.40;14.90;;;;;;;21.29;67.11;98464.20;105979;1277;97833;-79
2022/08/22 06:43:57;;;;;;;26.00;15.70;;;;;;;21.31;67.25;98466.48;105886;1276;107758;-79
2022/08/22 06:46:28;;;;;;;24.20;15.40;;;;;;;21.34;67.15;98463.04;106026;1276;97947;-79
2022/08/22 06:48:59;;;;;;;24.50;14.40;;;;;;;21.36;67.16;98468.67;105916;1276;97906;-78
2022/08/22 06:51:29;;;;;;;24.40;15.20;;;;;;;21.39;67.16;98469.23;105920;1276;111621;-79
2022/08/22 06:54:02;;;;;;;24.20;15.40;;;;;;;21.41;66.89;98472.45;105924;1276;98454;-79
2022/08/22 06:56:39;;;;;;;22.90;13.90;;;;;;;21.41;67.08;98475.23;105849;1277;107785;-78
2022/08/22 06:59:12;;;;;;;26.50;14.70;;;;;;;21.45;67.23;98475.05;105861;1277;97011;-78
2022/08/22 07:02:02;;;;;;;24.60;14.30;;;;;;;21.48;67.13;98476.45;105944;1276;97880;-78
2022/08/22 07:04:30;;;;;;;23.90;14.80;;;;;;;21.52;67.27;98477.02;106084;1276;111423;-78
2022/08/22 07:07:00;;;;;;;22.90;14.80;;;;;;;21.55;67.17;98479.34;106854;1276;98016;-78
2022/08/22 07:09:39;;;;;;;22.70;15.20;;;;;;;21.59;67.22;98482.78;106158;1276;107610;-78
2022/08/22 07:12:20;;;;;;;22.40;14.30;;;;;;;21.63;66.83;98484.25;105893;1276;96071;-78
2022/08/22 07:14:50;;;;;;;23.60;14.50;;;;;;;21.66;67.03;98484.73;105734;1276;97804;-75
2022/08/22 07:17:23;;;;;;;23.30;15.20;;;;;;;21.70;67.04;98487.98;105787;1277;111479;-77
2022/08/22 07:20:26;;;;;;;25.00;14.70;;;;;;;21.74;67.25;98488.86;105997;1276;96264;-80
2022/08/22 07:23:08;;;;;;;25.30;16.10;;;;;;;21.76;66.97;98489.29;106010;1276;107497;-82
2022/08/22 07:25:51;;;;;;;24.20;14.40;;;;;;;21.79;67.05;98490.45;105964;1275;97797;-82
2022/08/22 07:28:57;;;;;;;27.50;13.70;;;;;;;21.81;67.05;98491.18;105932;1275;97978;-78
2022/08/22 07:31:52;;;;;;;23.50;13.90;;;;;;;21.82;67.06;98493.58;105336;1277;110981;-81
2022/08/22 07:34:43;;;;;;;24.50;13.50;;;;;;;21.84;66.93;98497.45;105747;1276;97895;-81
2022/08/22 07:37:30;;;;;;;26.10;13.60;;;;;;;21.86;67.00;98496.48;105798;1277;107801;-82
2022/08/22 07:40:19;;;;;;;21.90;13.90;;;;;;;21.88;66.99;98496.02;105966;1276;97973;-76
2022/08/22 07:42:55;;;;;;;21.80;13.90;;;;;;;21.90;66.93;98496.91;105917;1276;98654;-79
2022/08/22 07:45:44;;;;;;;25.60;14.40;;;;;;;21.93;67.09;98491.35;106000;1276;110031;-79
2022/08/22 07:48:32;;;;;;;26.20;13.30;;;;;;;21.95;66.91;98494.83;105916;1276;95284;-76
2022/08/22 07:51:12;;;;;;;23.80;15.00;;;;;;;21.97;67.33;98497.21;105812;1276;107763;-82
2022/08/22 07:53:48;;;;;;;25.80;14.10;;;;;;;22.00;67.09;98496.10;105777;1277;97950;-81
2022/08/22 07:56:27;;;;;;;25.30;13.60;;;;;;;22.03;67.07;98496.27;105825;1276;96493;-79
2022/08/22 07:59:02;;;;;;;26.70;13.60;;;;;;;22.06;67.06;98495.70;105904;1276;111456;-76
2022/08/22 08:01:39;;;;;;;24.00;13.80;;;;;;;22.09;67.14;98491.70;105821;1276;97887;-81
2022/08/22 08:04:11;;;;;;;22.90;13.40;;;;;;;22.12;67.29;98488.65;105811;1277;107690;-70
2022/08/22 08:06:40;;;;;;;25.80;14.00;;;;;;;22.18;67.06;98490.58;105824;1278;98030;-72
2022/08/22 08:09:14;;;;;;;24.80;14.20;;;;;;;22.23;67.14;98489.49;105746;1276;98012;-73
2022/08/22 08:11:43;;;;;;;25.20;14.30;;;;;;;22.29;66.99;98489.31;105569;1274;111936;-74
2022/08/22 08:14:15;;;;;;;22.90;12.80;;;;;;;22.34;66.85;98491.96;106836;1275;97912;-75
2022/08/22 08:17:01;;;;;;;25.20;14.20;;;;;;;22.41;66.89;98492.08;106702;1276;107668;-73
2022/08/22 08:19:33;;;;;;;23.70;13.10;;;;;;;22.55;67.01;98491.86;105497;1276;97805;-71
2022/08/22 08:22:01;;;;;;;21.50;11.50;;;;;;;23.23;66.35;98492.00;105598;1278;98026;-72
2022/08/22 08:24:37;;;;;;;21.00;11.10;;;;;;;24.02;66.03;98491.16;105828;1276;111501;-72
2022/08/22 08:30:21;;;;;;;21.00;10.20;;;;;;;26.37;65.79;98487.38;105796;1278;106911;-72
2022/08/22 08:32:54;;;;;;;19.60;10.00;;;;;;;27.14;65.94;98481.36;105876;1275;97939;-70
2022/08/22 08:35:49;;;;;;;19.70;10.00;;;;;;;28.42;65.53;98479.58;105858;1276;97845;-70
2022/08/22 08:38:44;;;;;;;17.00;9.00;;;;;;;29.48;64.89;98476.05;105878;1276;112352;-74
2022/08/22 08:41:55;;;;;;;21.50;9.10;;;;;;;30.34;64.77;98477.88;105938;1274;98941;-73
2022/08/22 08:44:39;;;;;;;19.90;9.00;;;;;;;31.04;64.47;98481.00;105721;1277;106619;-73
2022/08/22 08:47:28;;;;;;;18.40;8.70;;;;;;;31.37;64.41;98482.17;105750;1276;97942;-71
2022/08/22 08:50:24;;;;;;;20.00;9.70;;;;;;;31.72;63.82;98482.66;105841;1275;97969;-70
2022/08/22 08:53:05;;;;;;;24.30;9.80;;;;;;;31.88;63.37;98479.85;105870;1276;111918;-70
2022/08/22 08:55:53;;;;;;;20.40;9.00;;;;;;;31.94;63.16;98482.58;105920;1277;98408;-69
2022/08/22 08:58:37;;;;;;;19.10;8.50;;;;;;;32.22;62.74;98478.67;105971;1276;107731;-71
2022/08/22 09:01:17;;;;;;;20.20;9.00;;;;;;;32.23;62.74;98478.92;105967;1276;97981;-73
2022/08/22 09:04:16;;;;;;;21.60;8.90;;;;;;;32.47;62.15;98473.96;105890;1276;97959;-72
2022/08/22 09:06:54;;;;;;;20.50;9.60;;;;;;;32.59;61.46;98471.35;105804;1278;112106;-70
2022/08/22 09:10:10;;;;;;;22.70;8.80;;;;;;;32.42;61.65;98468.73;105888;1276;96061;-73
2022/08/22 09:13:23;;;;;;;21.70;9.50;;;;;;;32.22;61.00;98467.41;105952;1276;107832;-71
2022/08/22 09:16:15;;;;;;;21.10;10.20;;;;;;;32.18;60.34;98466.69;105881;1276;97948;-76
2022/08/22 09:19:13;;;;;;;22.70;9.20;;;;;;;32.38;60.11;98471.23;105897;1276;95973;-73
2022/08/22 09:22:04;;;;;;;17.30;9.50;;;;;;;32.66;59.38;98470.88;105560;1277;111401;-75
2022/08/22 09:25:01;;;;;;;21.20;9.50;;;;;;;32.63;59.26;98472.30;105981;1276;98429;-77
2022/08/22 09:27:46;;;;;;;21.90;9.30;;;;;;;32.52;58.83;98473.59;105818;1278;107803;-69
2022/08/22 09:30:20;;;;;;;21.60;9.60;;;;;;;32.34;58.60;98478.48;105792;1276;97977;-69
2022/08/22 09:33:11;;;;;;;22.10;9.90;;;;;;;31.95;57.98;98472.45;105884;1276;97862;-71
2022/08/22 09:36:02;;;;;;;22.50;9.60;;;;;;;31.77;57.85;98475.49;105867;1277;111367;-72
2022/08/22 09:38:49;;;;;;;18.10;9.00;;;;;;;32.01;57.30;98470.00;106085;1277;97058;-69
2022/08/22 09:41:34;;;;;;;20.20;9.20;;;;;;;32.54;57.13;98469.58;105880;1277;107522;-71
2022/08/22 09:44:30;;;;;;;18.30;9.20;;;;;;;33.15;56.50;98467.04;106132;1276;98606;-69
2022/08/22 09:47:33;;;;;;;21.80;9.40;;;;;;;33.87;56.26;98465.39;105955;1277;97887;-70
2022/08/22 09:50:23;;;;;;;25.60;9.80;;;;;;;34.45;55.73;98460.44;105883;1277;111367;-67
2022/08/22 09:53:23;;;;;;;19.00;9.30;;;;;;;34.77;55.16;98458.82;105905;1278;97983;-70
2022/08/22 09:56:02;;;;;;;27.00;10.30;;;;;;;34.72;55.15;98462.84;106031;1274;107726;-73
2022/08/22 09:58:42;;;;;;;20.20;8.80;;;;;;;34.38;54.52;98460.08;105927;1277;97915;-74
2022/08/22 10:01:25;;;;;;;19.00;9.40;;;;;;;34.05;54.30;98463.86;105990;1274;97903;-69
2022/08/22 10:04:34;;;;;;;24.40;9.40;;;;;;;33.75;53.94;98461.39;105952;1277;112444;-69
2022/08/22 10:07:32;;;;;;;25.00;9.50;;;;;;;33.41;53.82;98466.77;106015;1274;95999;-70
2022/08/22 10:10:23;;;;;;;21.80;9.20;;;;;;;33.16;53.43;98464.19;106079;1275;107974;-70
2022/08/22 10:13:04;;;;;;;20.10;9.20;;;;;;;32.94;52.98;98461.97;105982;1274;98147;-69
2022/08/22 10:15:44;;;;;;;19.20;8.50;;;;;;;32.65;52.63;98462.39;105961;1277;96970;-68
2022/08/22 10:18:36;;;;;;;20.90;9.00;;;;;;;32.37;52.60;98463.96;105869;1278;111513;-70
2022/08/22 10:21:22;;;;;;;26.40;9.70;;;;;;;32.14;52.30;98468.53;105876;1278;95820;-72
2022/08/22 10:24:01;;;;;;;21.60;8.50;;;;;;;32.04;52.07;98461.95;105947;1277;107735;-73
2022/08/22 10:26:50;;;;;;;19.40;8.10;;;;;;;31.92;51.70;98458.36;105969;1277;97946;-73
2022/08/22 10:29:48;;;;;;;18.90;9.40;;;;;;;31.77;51.52;98462.23;105942;1277;97871;-71
2022/08/22 10:32:53;;;;;;;19.10;9.40;;;;;;;31.58;51.17;98463.02;105953;1277;112062;-69
2022/08/22 10:35:39;;;;;;;21.10;8.40;;;;;;;31.40;51.01;98461.98;106071;1275;98453;-71
2022/08/22 10:38:25;;;;;;;20.50;9.00;;;;;;;31.36;50.98;98461.17;105974;1277;108452;-74
2022/08/22 10:41:17;;;;;;;17.90;8.90;;;;;;;31.25;50.66;98459.50;106031;1275;97969;-74
2022/08/22 10:44:02;;;;;;;17.00;7.90;;;;;;;31.12;50.40;98454.88;106037;1277;97915;-73
2022/08/22 10:46:39;;;;;;;18.90;8.30;;;;;;;31.06;50.45;98458.10;105956;1277;111560;-72
2022/08/22 10:49:37;;;;;;;18.20;8.30;;;;;;;31.02;50.26;98457.95;106148;1277;99297;-76
2022/08/22 10:52:10;;;;;;;16.70;8.10;;;;;;;30.99;50.23;98456.94;106067;1274;107652;-74
2022/08/22 10:54:59;;;;;;;22.00;9.00;;;;;;;30.97;50.02;98454.40;106006;1275;97963;-76
2022/08/22 10:57:36;;;;;;;20.70;8.90;;;;;;;30.92;49.79;98449.75;106027;1277;97927;-78
2022/08/22 11:00:10;;;;;;;17.30;7.70;;;;;;;30.84;49.73;98445.94;106014;1274;111313;-72
2022/08/22 11:02:52;;;;;;;21.40;9.00;;;;;;;30.77;49.69;98437.20;106007;1278;98388;-78
2022/08/22 11:05:39;;;;;;;17.50;8.40;;;;;;;30.66;49.35;98434.77;106076;1274;108028;-74
2022/08/22 11:08:54;;;;;;;18.90;7.80;;;;;;;30.56;49.32;98430.71;106002;1275;95360;-75
2022/08/22 11:11:47;;;;;;;15.80;7.70;;;;;;;30.37;49.20;98435.49;106148;1277;96212;-78
2022/08/22 11:14:27;;;;;;;20.40;8.70;;;;;;;30.18;49.17;98435.16;105998;1277;110624;-71
2022/08/22 11:16:58;;;;;;;15.70;6.90;;;;;;;30.11;49.10;98433.52;106051;1278;98687;-75
2022/08/22 11:19:51;;;;;;;18.70;8.40;;;;;;;30.12;48.96;98436.54;105990;1277;107801;-76
2022/08/22 11:22:44;;;;;;;19.00;7.90;;;;;;;30.12;48.83;98434.00;106003;1274;98069;-76
2022/08/22 11:25:34;;;;;;;19.40;7.20;;;;;;;30.11;48.73;98431.15;105988;1277;97852;-73
2022/08/22 11:28:37;;;;;;;20.60;8.50;;;;;;;30.13;48.67;98428.92;105954;1277;111874;-68
2022/08/22 11:31:28;;;;;;;23.80;8.80;;;;;;;30.16;48.80;98427.47;105763;1277;98483;-71
2022/08/22 11:34:21;;;;;;;17.60;7.90;;;;;;;30.19;48.64;98423.98;106019;1277;106453;-69
2022/08/22 11:37:00;;;;;;;19.70;8.00;;;;;;;30.20;48.68;98424.83;106018;1277;97960;-69
2022/08/22 11:39:41;;;;;;;18.90;7.80;;;;;;;30.20;48.58;98423.63;106048;1277;97951;-73
2022/08/22 11:42:12;;;;;;;18.00;7.90;;;;;;;30.23;48.48;98423.16;106057;1277;111725;-72
2022/08/22 11:44:54;;;;;;;72.10;19.20;;;;;;;30.27;48.32;98422.16;105956;1276;97880;-72
2022/08/22 11:47:31;;;;;;;60.20;16.10;;;;;;;30.31;48.15;98425.67;105940;1276;108797;-75
2022/08/22 11:50:11;;;;;;;29.80;10.60;;;;;;;30.34;48.09;98426.35;106065;1277;96314;-75
2022/08/22 11:53:09;;;;;;;22.70;8.40;;;;;;;30.35;47.94;98428.52;106098;1276;98619;-72
2022/08/22 11:56:07;;;;;;;28.00;10.80;;;;;;;30.37;47.86;98426.29;106040;1277;111384;-73
2022/08/22 11:58:53;;;;;;;24.70;9.50;;;;;;;30.40;47.79;98423.73;106030;1277;98002;-74
2022/08/22 12:01:35;;;;;;;19.80;7.90;;;;;;;30.42;47.69;98422.98;106037;1277;107726;-73
2022/08/22 12:04:31;;;;;;;22.80;8.30;;;;;;;30.45;47.53;98420.48;106000;1277;96320;-70
2022/08/22 12:07:17;;;;;;;20.50;8.00;;;;;;;30.45;47.48;98417.03;105991;1277;98785;-72
2022/08/22 12:09:54;;;;;;;18.80;7.60;;;;;;;30.44;47.40;98412.52;105998;1277;111264;-72
2022/08/22 12:12:39;;;;;;;19.70;9.00;;;;;;;30.40;47.39;98412.20;106068;1276;97748;-75
2022/08/22 12:15:21;;;;;;;23.50;8.40;;;;;;;30.36;47.30;98410.68;106075;1276;107751;-77
2022/08/22 12:18:17;;;;;;;23.30;8.50;;;;;;;30.31;47.19;98408.51;106077;1276;97411;-77
2022/08/22 12:21:00;;;;;;;13.70;6.20;;;;;;;30.24;47.23;98405.08;106164;1276;97889;-75
2022/08/22 12:24:05;;;;;;;15.80;7.00;;;;;;;30.13;47.07;98401.23;106056;1276;112652;-75
2022/08/22 12:27:04;;;;;;;15.40;6.60;;;;;;;30.07;46.94;98397.70;106108;1277;98340;-75
2022/08/22 12:30:02;;;;;;;13.30;6.60;;;;;;;30.08;46.88;98393.04;105965;1276;107615;-70
2022/08/22 12:33:05;;;;;;;13.80;6.80;;;;;;;30.10;46.89;98389.61;105988;1277;98018;-73
2022/08/22 12:35:54;;;;;;;12.70;6.60;;;;;;;30.09;46.76;98384.02;106049;1277;97873;-71